createdAt,value
2022-12-04T00:00:30.066Z,100504.94
2022-12-04T00:03:34.117Z,100505.56
2022-12-04T00:06:37.139Z,100505.75
2022-12-04T00:09:40.412Z,100507.16
2022-12-04T00:12:43.424Z,100514.72
2022-12-04T00:15:46.654Z,100516.00
2022-12-04T00:18:51.170Z,100521.22
2022-12-04T00:21:54.726Z,100520.75
2022-12-04T00:24:57.734Z,100515.37
2022-12-04T00:28:01.466Z,100519.63
2022-12-04T00:31:09.222Z,100517.44
2022-12-04T00:34:12.538Z,100522.81
2022-12-04T00:37:15.590Z,100505.56
2022-12-04T00:40:18.796Z,100510.47
2022-12-04T00:43:23.210Z,100506.53
2022-12-04T00:46:27.724Z,100510.16
2022-12-04T00:49:30.781Z,100509.69
2022-12-04T00:52:33.975Z,100506.53
2022-12-04T00:55:43.865Z,100511.41
2022-12-04T00:58:47.450Z,100508.09
2022-12-04T01:01:50.601Z,100508.22
2022-12-04T01:04:54.082Z,100515.84
2022-12-04T01:07:57.733Z,100507.59
2022-12-04T01:11:05.954Z,100503.66
2022-12-04T01:14:09.160Z,100499.22
2022-12-04T01:17:14.031Z,100498.28
2022-12-04T01:20:17.604Z,100494.16
2022-12-04T01:23:21.362Z,100487.69
2022-12-04T01:26:24.875Z,100482.62
2022-12-04T01:29:28.447Z,100478.22
2022-12-04T01:32:32.365Z,100473.94
2022-12-04T01:35:36.305Z,100478.84
2022-12-04T01:38:39.779Z,100491.31
2022-12-04T01:41:43.412Z,100490.81
2022-12-04T01:45:29.198Z,100495.88
2022-12-04T01:48:38.470Z,100475.47
2022-12-04T01:51:45.141Z,100475.13
2022-12-04T01:54:55.206Z,100474.66
2022-12-04T01:57:59.280Z,100479.09
2022-12-04T02:01:08.481Z,100475.75
2022-12-04T02:04:14.065Z,100472.78
2022-12-04T02:07:17.743Z,100479.84
2022-12-04T02:10:27.425Z,100480.47
2022-12-04T02:13:48.440Z,100483.78
2022-12-04T02:16:57.448Z,100488.37
2022-12-04T02:20:12.512Z,100488.50
2022-12-04T02:23:22.854Z,100488.22
2022-12-04T02:26:56.328Z,100478.44
2022-12-04T02:30:04.576Z,100474.50
2022-12-04T02:33:25.096Z,100467.75
2022-12-04T02:36:39.915Z,100465.41
2022-12-04T02:39:49.698Z,100463.03
2022-12-04T02:43:27.849Z,100467.75
2022-12-04T02:46:40.955Z,100473.28
2022-12-04T02:49:57.225Z,100468.41
2022-12-04T02:53:12.166Z,100458.00
2022-12-04T02:56:20.627Z,100469.03
2022-12-04T02:59:29.942Z,100465.25
2022-12-04T03:02:38.153Z,100464.44
2022-12-04T03:05:51.244Z,100464.94
2022-12-04T03:09:10.149Z,100460.81
2022-12-04T03:12:18.388Z,100467.28
2022-12-04T03:15:56.478Z,100463.81
2022-12-04T03:19:08.063Z,100458.16
2022-12-04T03:22:15.526Z,100460.34
2022-12-04T03:25:19.027Z,100449.44
2022-12-04T03:28:30.526Z,100451.16
2022-12-04T03:31:44.462Z,100444.22
2022-12-04T03:34:56.089Z,100441.53
2022-12-04T03:38:17.634Z,100447.88
2022-12-04T03:41:27.637Z,100452.91
2022-12-04T03:44:56.564Z,100460.50
2022-12-04T03:48:43.187Z,100459.84
2022-12-04T03:51:55.900Z,100445.47
2022-12-04T03:55:25.389Z,100455.28
2022-12-04T03:58:33.805Z,100449.28
2022-12-04T04:01:43.380Z,100454.28
2022-12-04T04:04:50.359Z,100460.78
2022-12-04T04:07:56.288Z,100455.22
2022-12-04T04:11:22.818Z,100444.66
2022-12-04T04:14:52.529Z,100459.97
2022-12-04T04:18:15.712Z,100453.16
2022-12-04T04:21:41.425Z,100453.47
2022-12-04T04:25:00.430Z,100455.66
2022-12-04T04:28:03.829Z,100443.66
2022-12-04T04:31:11.235Z,100443.50
2022-12-04T04:34:39.539Z,100438.00
2022-12-04T04:38:10.977Z,100441.00
2022-12-04T04:41:25.892Z,100447.31
2022-12-04T04:44:40.594Z,100450.75
2022-12-04T04:47:59.176Z,100458.97
2022-12-04T04:51:03.865Z,100468.59
2022-12-04T04:54:09.765Z,100471.94
2022-12-04T04:57:13.417Z,100474.16
2022-12-04T05:00:20.363Z,100471.94
2022-12-04T05:03:23.934Z,100459.00
2022-12-04T05:06:27.003Z,100472.28
2022-12-04T05:09:38.196Z,100484.16
2022-12-04T05:12:44.184Z,100477.50
2022-12-04T05:16:05.467Z,100475.28
2022-12-04T05:19:27.509Z,100480.84
2022-12-04T05:22:33.350Z,100480.87
2022-12-04T05:25:36.533Z,100488.56
2022-12-04T05:28:42.322Z,100482.91
2022-12-04T05:31:45.258Z,100467.44
2022-12-04T05:34:51.890Z,100472.59
2022-12-04T05:37:54.959Z,100477.81
2022-12-04T05:40:59.239Z,100489.34
2022-12-04T05:44:03.532Z,100482.91
2022-12-04T05:47:07.523Z,100479.72
2022-12-04T05:50:12.788Z,100484.31
2022-12-04T05:53:18.882Z,100491.09
2022-12-04T05:56:23.050Z,100485.25
2022-12-04T05:59:27.201Z,100486.22
2022-12-04T06:02:30.281Z,100495.84
2022-12-04T06:05:33.851Z,100490.63
2022-12-04T06:08:38.241Z,100481.19
2022-12-04T06:11:43.338Z,100485.13
2022-12-04T06:14:46.253Z,100480.69
2022-12-04T06:17:49.873Z,100479.62
2022-12-04T06:20:52.793Z,100488.13
2022-12-04T06:23:56.293Z,100483.09
2022-12-04T06:30:24.425Z,100481.53
2022-12-04T06:33:27.319Z,100491.81
2022-12-04T06:36:30.937Z,100499.06
2022-12-04T06:39:33.931Z,100489.91
2022-12-04T06:42:37.407Z,100487.69
2022-12-04T06:45:40.699Z,100491.00
2022-12-04T06:48:44.090Z,100486.44
2022-12-04T06:51:47.436Z,100487.22
2022-12-04T06:54:52.538Z,100484.53
2022-12-04T06:57:56.179Z,100485.63
2022-12-04T07:01:00.090Z,100497.16
2022-12-04T07:04:04.731Z,100493.56
2022-12-04T07:07:11.542Z,100501.28
2022-12-04T07:10:14.849Z,100504.63
2022-12-04T07:13:22.693Z,100501.31
2022-12-04T07:16:27.161Z,100494.66
2022-12-04T07:19:30.734Z,100497.50
2022-12-04T07:22:33.700Z,100505.25
2022-12-04T07:25:40.764Z,100500.63
2022-12-04T07:28:47.136Z,100485.13
2022-12-04T07:31:51.274Z,100488.16
2022-12-04T07:34:58.510Z,100504.59
2022-12-04T07:38:01.699Z,100510.78
2022-12-04T07:41:07.258Z,100509.84
2022-12-04T07:44:11.927Z,100516.16
2022-12-04T07:47:15.080Z,100509.22
2022-12-04T07:50:19.518Z,100508.88
2022-12-04T07:53:22.492Z,100519.19
2022-12-04T07:56:26.073Z,100518.84
2022-12-04T07:59:29.577Z,100525.34
2022-12-04T08:02:32.908Z,100522.81
2022-12-04T08:05:36.250Z,100510.75
2022-12-04T08:08:39.667Z,100515.22
2022-12-04T08:11:42.813Z,100515.97
2022-12-04T08:14:45.658Z,100521.84
2022-12-04T08:17:48.959Z,100519.63
2022-12-04T08:20:51.943Z,100515.19
2022-12-04T08:23:58.547Z,100518.06
2022-12-04T08:27:01.469Z,100512.38
2022-12-04T08:30:06.951Z,100517.91
2022-12-04T08:33:11.231Z,100520.25
2022-12-04T08:36:17.774Z,100510.63
2022-12-04T08:39:20.737Z,100512.69
2022-12-04T08:42:24.297Z,100514.75
2022-12-04T08:45:27.462Z,100506.38
2022-12-04T08:48:31.671Z,100510.63
2022-12-04T08:51:36.093Z,100506.38
2022-12-04T08:54:41.465Z,100514.59
2022-12-04T08:57:44.360Z,100514.44
2022-12-04T09:00:49.296Z,100503.03
2022-12-04T09:03:53.850Z,100495.25
2022-12-04T09:06:58.367Z,100496.50
2022-12-04T09:10:02.038Z,100488.09
2022-12-04T09:13:06.014Z,100486.00
2022-12-04T09:16:13.514Z,100485.81
2022-12-04T09:19:18.899Z,100478.91
2022-12-04T09:22:22.330Z,100471.09
2022-12-04T09:25:26.042Z,100483.41
2022-12-04T09:28:30.123Z,100470.28
2022-12-04T09:31:35.505Z,100470.16
2022-12-04T09:34:39.341Z,100475.41
2022-12-04T09:37:42.982Z,100475.47
2022-12-04T09:40:58.100Z,100474.63
2022-12-04T09:44:22.415Z,100464.69
2022-12-04T09:47:36.791Z,100467.31
2022-12-04T09:50:45.710Z,100468.44
2022-12-04T09:54:00.557Z,100467.75
2022-12-04T09:57:24.539Z,100471.88
2022-12-04T10:00:29.938Z,100457.97
2022-12-04T10:03:35.114Z,100456.22
2022-12-04T10:06:49.110Z,100464.94
2022-12-04T10:09:58.312Z,100457.03
2022-12-04T10:13:38.552Z,100448.28
2022-12-04T10:17:11.091Z,100445.03
2022-12-04T10:20:36.434Z,100447.09
2022-12-04T10:23:58.639Z,100436.53
2022-12-04T10:27:08.784Z,100429.94
2022-12-04T10:30:24.026Z,100438.81
2022-12-04T10:33:47.902Z,100427.41
2022-12-04T10:36:59.435Z,100414.03
2022-12-04T10:40:24.579Z,100408.19
2022-12-04T10:43:48.994Z,100416.41
2022-12-04T10:46:56.602Z,100415.78
2022-12-04T10:50:04.681Z,100417.00
2022-12-04T10:53:13.441Z,100411.66
2022-12-04T10:56:24.661Z,100403.06
2022-12-04T10:59:29.141Z,100394.59
2022-12-04T11:02:33.948Z,100396.91
2022-12-04T11:05:55.544Z,100399.72
2022-12-04T11:08:59.352Z,100388.72
2022-12-04T11:12:21.269Z,100378.06
2022-12-04T11:15:25.103Z,100377.59
2022-12-04T11:18:28.950Z,100380.91
2022-12-04T11:21:32.766Z,100378.00
2022-12-04T11:24:40.416Z,100367.81
2022-12-04T11:27:49.759Z,100360.69
2022-12-04T11:30:55.387Z,100356.03
2022-12-04T11:34:01.743Z,100354.69
2022-12-04T11:37:07.042Z,100339.69
2022-12-04T11:40:18.495Z,100333.50
2022-12-04T11:43:24.778Z,100330.66
2022-12-04T11:46:34.246Z,100329.81
2022-12-04T11:49:43.598Z,100329.44
2022-12-04T11:53:03.212Z,100327.41
2022-12-04T11:56:35.336Z,100323.19
2022-12-04T11:59:58.012Z,100319.13
2022-12-04T12:03:14.028Z,100305.91
2022-12-04T12:06:23.381Z,100313.25
2022-12-04T12:09:32.858Z,100317.78
2022-12-04T12:12:46.675Z,100313.09
2022-12-04T12:16:02.401Z,100315.03
2022-12-04T12:19:08.924Z,100307.69
2022-12-04T12:22:37.165Z,100318.41
2022-12-04T12:26:06.887Z,100315.25
2022-12-04T12:29:16.912Z,100304.94
2022-12-04T12:32:26.303Z,100310.66
2022-12-04T12:35:50.219Z,100308.53
2022-12-04T12:39:00.770Z,100309.81
2022-12-04T12:42:08.284Z,100313.84
2022-12-04T12:45:39.907Z,100316.84
2022-12-04T12:48:57.955Z,100308.41
2022-12-04T12:52:06.135Z,100313.69
2022-12-04T12:55:15.301Z,100306.97
2022-12-04T12:58:30.237Z,100306.47
2022-12-04T13:01:36.611Z,100310.75
2022-12-04T13:04:44.188Z,100307.12
2022-12-04T13:07:58.869Z,100312.31
2022-12-04T13:11:22.580Z,100307.34
2022-12-04T13:14:25.838Z,100299.00
2022-12-04T13:17:35.332Z,100302.19
2022-12-04T13:20:46.444Z,100294.09
2022-12-04T13:24:23.257Z,100295.28
2022-12-04T13:27:52.470Z,100297.34
2022-12-04T13:31:14.432Z,100284.37
2022-12-04T13:34:32.763Z,100293.91
2022-12-04T13:37:57.748Z,100296.56
2022-12-04T13:41:02.720Z,100301.91
2022-12-04T13:44:20.445Z,100306.31
2022-12-04T13:47:29.706Z,100316.97
2022-12-04T13:50:35.058Z,100310.56
2022-12-04T13:53:39.916Z,100310.19
2022-12-04T13:56:47.095Z,100316.38
2022-12-04T13:59:50.477Z,100313.88
2022-12-04T14:02:56.369Z,100324.56
2022-12-04T14:06:05.698Z,100315.69
2022-12-04T14:09:20.106Z,100325.06
2022-12-04T14:12:31.538Z,100322.16
2022-12-04T14:15:37.241Z,100326.94
2022-12-04T14:18:40.483Z,100327.63
2022-12-04T14:21:45.532Z,100325.37
2022-12-04T14:24:50.773Z,100330.31
2022-12-04T14:27:54.882Z,100330.00
2022-12-04T14:31:15.021Z,100322.50
2022-12-04T14:34:18.931Z,100322.50
2022-12-04T14:37:28.328Z,100341.59
2022-12-04T14:40:38.431Z,100335.44
2022-12-04T14:43:46.329Z,100340.19
2022-12-04T14:46:52.359Z,100344.59
2022-12-04T14:50:09.528Z,100340.66
2022-12-04T14:53:31.590Z,100346.06
2022-12-04T14:57:05.460Z,100342.78
2022-12-04T15:00:17.628Z,100339.66
2022-12-04T15:03:22.909Z,100333.16
2022-12-04T15:06:29.242Z,100340.81
2022-12-04T15:09:52.272Z,100339.09
2022-12-04T15:12:55.718Z,100344.72
2022-12-04T15:16:09.331Z,100353.41
2022-12-04T15:19:21.389Z,100356.56
2022-12-04T15:22:30.678Z,100358.13
2022-12-04T15:25:41.196Z,100362.44
2022-12-04T15:28:52.503Z,100357.34
2022-12-04T15:31:59.081Z,100359.84
2022-12-04T15:35:07.008Z,100362.19
2022-12-04T15:38:14.183Z,100362.87
2022-12-04T15:41:31.751Z,100358.03
2022-12-04T15:44:37.005Z,100350.62
2022-12-04T15:47:44.072Z,100346.78
2022-12-04T15:51:02.693Z,100355.87
2022-12-04T15:54:14.544Z,100357.56
2022-12-04T15:57:31.683Z,100352.97
2022-12-04T16:00:39.628Z,100365.78
2022-12-04T16:03:43.241Z,100357.47
2022-12-04T16:06:49.393Z,100357.69
2022-12-04T16:10:02.929Z,100356.22
2022-12-04T16:13:06.886Z,100360.38
2022-12-04T16:16:17.739Z,100359.03
2022-12-04T16:19:33.527Z,100357.16
2022-12-04T16:22:41.240Z,100349.47
2022-12-04T16:25:44.360Z,100353.62
2022-12-04T16:28:49.227Z,100352.97
2022-12-04T16:31:52.940Z,100352.41
2022-12-04T16:34:57.653Z,100351.31
2022-12-04T16:38:01.467Z,100354.88
2022-12-04T16:41:05.771Z,100358.38
2022-12-04T16:44:14.486Z,100363.66
2022-12-04T16:47:21.626Z,100359.72
2022-12-04T16:50:27.257Z,100364.22
2022-12-04T16:53:31.293Z,100369.97
2022-12-04T16:56:34.623Z,100365.34
2022-12-04T16:59:38.520Z,100375.25
2022-12-04T17:02:45.383Z,100368.16
2022-12-04T17:05:49.647Z,100366.81
2022-12-04T17:08:53.216Z,100369.50
2022-12-04T17:11:58.388Z,100364.56
2022-12-04T17:15:02.187Z,100365.47
2022-12-04T17:18:12.016Z,100370.84
2022-12-04T17:21:16.584Z,100365.78
2022-12-04T17:24:20.784Z,100362.31
2022-12-04T17:27:25.978Z,100365.25
2022-12-04T17:30:35.647Z,100365.69
2022-12-04T17:33:39.138Z,100363.66
2022-12-04T17:36:43.378Z,100369.41
2022-12-04T17:39:46.948Z,100368.50
2022-12-04T17:42:51.111Z,100366.56
2022-12-04T17:45:55.106Z,100368.81
2022-12-04T17:49:02.595Z,100370.19
2022-12-04T17:52:08.690Z,100367.03
2022-12-04T17:55:12.243Z,100367.38
2022-12-04T17:58:15.593Z,100368.59
2022-12-04T18:01:21.983Z,100369.37
2022-12-04T18:04:25.808Z,100363.66
2022-12-04T18:07:32.525Z,100375.81
2022-12-04T18:10:36.310Z,100365.13
2022-12-04T18:13:40.000Z,100367.16
2022-12-04T18:16:47.398Z,100366.47
2022-12-04T18:19:50.642Z,100364.12
2022-12-04T18:22:56.605Z,100368.72
2022-12-04T18:26:02.315Z,100378.41
2022-12-04T18:29:07.763Z,100378.88
2022-12-04T18:32:12.169Z,100380.44
2022-12-04T18:35:16.041Z,100376.59
2022-12-04T18:38:19.495Z,100377.94
2022-12-04T18:41:27.996Z,100377.28
2022-12-04T18:44:32.583Z,100381.31
2022-12-04T18:47:37.153Z,100388.19
2022-12-04T18:50:42.248Z,100387.97
2022-12-04T18:53:48.055Z,100387.19
2022-12-04T18:56:53.295Z,100377.06
2022-12-04T18:59:58.708Z,100379.75
2022-12-04T19:03:04.820Z,100379.06
2022-12-04T19:06:23.129Z,100377.94
2022-12-04T19:10:02.529Z,100375.94
2022-12-04T19:12:53.039Z,100375.56
2022-12-04T19:16:01.689Z,100369.94
2022-12-04T19:19:05.423Z,100369.94
2022-12-04T19:22:12.327Z,100368.03
2022-12-04T19:25:16.838Z,100371.50
2022-12-04T19:28:20.302Z,100362.28
2022-12-04T19:31:27.989Z,100375.75
2022-12-04T19:34:32.512Z,100364.97
2022-12-04T19:37:41.794Z,100367.56
2022-12-04T19:40:47.147Z,100367.47
2022-12-04T19:43:54.520Z,100362.75
2022-12-04T19:46:58.652Z,100365.66
2022-12-04T19:50:05.004Z,100372.28
2022-12-04T19:53:10.083Z,100378.81
2022-12-04T19:56:19.776Z,100372.84
2022-12-04T19:59:24.037Z,100368.03
2022-12-04T20:02:28.141Z,100372.19
2022-12-04T20:05:37.143Z,100375.22
2022-12-04T20:08:41.277Z,100375.22
2022-12-04T20:11:45.367Z,100374.78
2022-12-04T20:14:49.302Z,100376.22
2022-12-04T20:17:54.780Z,100384.75
2022-12-04T20:21:04.145Z,100386.78
2022-12-04T20:24:08.980Z,100392.28
2022-12-04T20:27:12.957Z,100386.88
2022-12-04T20:30:22.092Z,100386.88
2022-12-04T20:33:26.311Z,100394.66
2022-12-04T20:36:31.862Z,100388.78
2022-12-04T20:39:35.511Z,100391.69
2022-12-04T20:42:40.258Z,100386.37
2022-12-04T20:45:45.303Z,100398.66
2022-12-04T20:48:51.489Z,100403.16
2022-12-04T20:51:57.357Z,100398.91
2022-12-04T20:55:02.949Z,100403.37
2022-12-04T20:58:07.777Z,100402.78
2022-12-04T21:01:14.519Z,100400.69
2022-12-04T21:04:19.333Z,100382.47
2022-12-04T21:07:24.212Z,100385.97
2022-12-04T21:10:27.500Z,100386.75
2022-12-04T21:13:50.676Z,100383.97
2022-12-04T21:16:53.971Z,100386.00
2022-12-04T21:20:00.365Z,100384.44
2022-12-04T21:23:07.606Z,100392.19
2022-12-04T21:26:10.944Z,100393.56
2022-12-04T21:29:15.590Z,100392.00
2022-12-04T21:32:19.806Z,100403.56
2022-12-04T21:35:22.744Z,100391.31
2022-12-04T21:38:25.926Z,100400.19
2022-12-04T21:41:47.332Z,100401.22
2022-12-04T21:44:50.400Z,100398.31
2022-12-04T21:47:53.772Z,100390.94
2022-12-04T21:50:57.324Z,100395.41
2022-12-04T21:54:00.523Z,100400.19
2022-12-04T21:57:10.272Z,100397.06
2022-12-04T22:00:14.689Z,100403.25
2022-12-04T22:03:18.679Z,100398.94
2022-12-04T22:06:22.044Z,100389.75
2022-12-04T22:09:26.309Z,100395.03
2022-12-04T22:15:52.936Z,100410.97
2022-12-04T22:18:59.818Z,100412.56
2022-12-04T22:22:03.190Z,100417.44
2022-12-04T22:25:06.421Z,100419.56
2022-12-04T22:28:09.711Z,100409.09
2022-12-04T22:31:15.398Z,100414.81
2022-12-04T22:34:18.673Z,100417.50
2022-12-04T22:37:21.514Z,100411.94
2022-12-04T22:40:24.872Z,100404.50
2022-12-04T22:43:29.195Z,100404.03
2022-12-04T22:46:32.641Z,100398.09
2022-12-04T22:49:35.678Z,100407.03
2022-12-04T22:52:39.199Z,100401.03
2022-12-04T22:55:42.069Z,100395.22
2022-12-04T22:58:46.731Z,100398.53
2022-12-04T23:01:49.639Z,100395.41
2022-12-04T23:04:54.269Z,100393.50
2022-12-04T23:07:57.498Z,100388.09
2022-12-04T23:11:10.618Z,100386.53
2022-12-04T23:14:16.025Z,100379.87
2022-12-04T23:17:20.468Z,100380.13
2022-12-04T23:20:23.322Z,100378.56
2022-12-04T23:23:27.368Z,100377.38
2022-12-04T23:26:33.165Z,100385.47
2022-12-04T23:29:52.657Z,100379.94
2022-12-04T23:32:59.029Z,100368.25
2022-12-04T23:36:05.629Z,100367.28
2022-12-04T23:39:09.153Z,100373.75
2022-12-04T23:42:12.306Z,100377.31
2022-12-04T23:45:15.378Z,100379.81
2022-12-04T23:48:18.767Z,100393.25
2022-12-04T23:51:23.112Z,100396.44
2022-12-04T23:54:27.996Z,100392.47
2022-12-04T23:57:31.010Z,100392.94
